sensor_id;sensor_type;location;lat;lon;timestamp;P1;durP1;ratioP1;P2;durP2;ratioP2
17566;SDS011;8901;52.088;5.084;2023-12-04T00:00:38;21.87;;;20.07;;
17566;SDS011;8901;52.088;5.084;2023-12-04T00:03:05;20.50;;;18.80;;
17566;SDS011;8901;52.088;5.084;2023-12-04T00:05:34;20.80;;;19.10;;
17566;SDS011;8901;52.088;5.084;2023-12-04T00:08:01;19.53;;;17.93;;
17566;SDS011;8901;52.088;5.084;2023-12-04T00:10:28;23.93;;;21.83;;
17566;SDS011;8901;52.088;5.084;2023-12-04T00:12:56;21.97;;;19.97;;
17566;SDS011;8901;52.088;5.084;2023-12-04T00:15:23;21.37;;;19.50;;
17566;SDS011;8901;52.088;5.084;2023-12-04T00:17:50;21.07;;;19.27;;
17566;SDS011;8901;52.088;5.084;2023-12-04T00:20:17;19.77;;;18.13;;
17566;SDS011;8901;52.088;5.084;2023-12-04T00:22:47;21.70;;;19.90;;
17566;SDS011;8901;52.088;5.084;2023-12-04T00:25:14;21.23;;;19.33;;
17566;SDS011;8901;52.088;5.084;2023-12-04T00:27:41;20.63;;;18.83;;
17566;SDS011;8901;52.088;5.084;2023-12-04T00:30:09;20.80;;;19.10;;
17566;SDS011;8901;52.088;5.084;2023-12-04T00:32:36;21.70;;;19.80;;
17566;SDS011;8901;52.088;5.084;2023-12-04T00:35:03;20.93;;;19.23;;
17566;SDS011;8901;52.088;5.084;2023-12-04T00:37:30;22.83;;;20.93;;
17566;SDS011;8901;52.088;5.084;2023-12-04T00:40:05;22.53;;;20.60;;
17566;SDS011;8901;52.088;5.084;2023-12-04T00:42:32;21.80;;;19.70;;
17566;SDS011;8901;52.088;5.084;2023-12-04T00:44:59;22.17;;;20.37;;
17566;SDS011;8901;52.088;5.084;2023-12-04T00:47:27;21.80;;;19.90;;
17566;SDS011;8901;52.088;5.084;2023-12-04T00:49:54;21.13;;;19.23;;
17566;SDS011;8901;52.088;5.084;2023-12-04T00:52:21;20.97;;;19.20;;
17566;SDS011;8901;52.088;5.084;2023-12-04T00:54:48;20.27;;;18.60;;
17566;SDS011;8901;52.088;5.084;2023-12-04T00:57:17;21.37;;;19.57;;
17566;SDS011;8901;52.088;5.084;2023-12-04T00:59:44;21.57;;;19.63;;
17566;SDS011;8901;52.088;5.084;2023-12-04T01:02:12;20.43;;;18.83;;
17566;SDS011;8901;52.088;5.084;2023-12-04T01:04:39;22.07;;;20.17;;
17566;SDS011;8901;52.088;5.084;2023-12-04T01:07:07;22.30;;;20.40;;
17566;SDS011;8901;52.088;5.084;2023-12-04T01:09:34;21.90;;;20.00;;
17566;SDS011;8901;52.088;5.084;2023-12-04T01:12:01;21.97;;;20.17;;
17566;SDS011;8901;52.088;5.084;2023-12-04T01:14:30;23.87;;;21.80;;
17566;SDS011;8901;52.088;5.084;2023-12-04T01:16:58;22.77;;;20.77;;
17566;SDS011;8901;52.088;5.084;2023-12-04T01:19:25;23.00;;;20.93;;
17566;SDS011;8901;52.088;5.084;2023-12-04T01:21:52;22.07;;;20.27;;
17566;SDS011;8901;52.088;5.084;2023-12-04T01:24:19;21.43;;;19.53;;
17566;SDS011;8901;52.088;5.084;2023-12-04T01:26:46;23.13;;;21.00;;
17566;SDS011;8901;52.088;5.084;2023-12-04T01:29:14;23.33;;;21.30;;
17566;SDS011;8901;52.088;5.084;2023-12-04T01:31:43;22.70;;;20.90;;
17566;SDS011;8901;52.088;5.084;2023-12-04T01:34:10;22.87;;;20.87;;
17566;SDS011;8901;52.088;5.084;2023-12-04T01:36:39;22.50;;;20.67;;
17566;SDS011;8901;52.088;5.084;2023-12-04T01:39:07;22.73;;;20.83;;
17566;SDS011;8901;52.088;5.084;2023-12-04T01:41:34;23.03;;;21.13;;
17566;SDS011;8901;52.088;5.084;2023-12-04T01:44:01;23.47;;;21.40;;
17566;SDS011;8901;52.088;5.084;2023-12-04T01:46:28;22.33;;;20.47;;
17566;SDS011;8901;52.088;5.084;2023-12-04T01:48:57;23.87;;;21.77;;
17566;SDS011;8901;52.088;5.084;2023-12-04T01:51:26;22.50;;;20.60;;
17566;SDS011;8901;52.088;5.084;2023-12-04T01:53:53;22.77;;;20.87;;
17566;SDS011;8901;52.088;5.084;2023-12-04T01:56:21;22.27;;;20.47;;
17566;SDS011;8901;52.088;5.084;2023-12-04T01:58:48;23.57;;;21.47;;
17566;SDS011;8901;52.088;5.084;2023-12-04T02:01:16;21.70;;;19.73;;
17566;SDS011;8901;52.088;5.084;2023-12-04T02:03:44;22.77;;;20.87;;
17566;SDS011;8901;52.088;5.084;2023-12-04T02:06:13;22.87;;;20.80;;
17566;SDS011;8901;52.088;5.084;2023-12-04T02:08:40;23.07;;;21.07;;
17566;SDS011;8901;52.088;5.084;2023-12-04T02:11:07;22.50;;;20.57;;
17566;SDS011;8901;52.088;5.084;2023-12-04T02:13:35;21.87;;;20.07;;
17566;SDS011;8901;52.088;5.084;2023-12-04T02:16:03;23.60;;;21.53;;
17566;SDS011;8901;52.088;5.084;2023-12-04T02:18:32;22.37;;;20.17;;
17566;SDS011;8901;52.088;5.084;2023-12-04T02:21:00;23.77;;;21.67;;
17566;SDS011;8901;52.088;5.084;2023-12-04T02:23:28;21.33;;;19.53;;
17566;SDS011;8901;52.088;5.084;2023-12-04T02:25:58;23.47;;;21.37;;
17566;SDS011;8901;52.088;5.084;2023-12-04T02:28:26;22.67;;;20.57;;
17566;SDS011;8901;52.088;5.084;2023-12-04T02:30:54;21.27;;;19.57;;
17566;SDS011;8901;52.088;5.084;2023-12-04T02:33:22;21.43;;;19.67;;
17566;SDS011;8901;52.088;5.084;2023-12-04T02:35:50;22.40;;;20.40;;
17566;SDS011;8901;52.088;5.084;2023-12-04T02:38:18;21.93;;;19.90;;
17566;SDS011;8901;52.088;5.084;2023-12-04T02:40:46;23.13;;;21.03;;
17566;SDS011;8901;52.088;5.084;2023-12-04T02:43:14;22.77;;;20.77;;
17566;SDS011;8901;52.088;5.084;2023-12-04T02:45:41;22.43;;;20.47;;
17566;SDS011;8901;52.088;5.084;2023-12-04T02:48:09;22.07;;;20.17;;
17566;SDS011;8901;52.088;5.084;2023-12-04T02:50:36;21.67;;;19.87;;
17566;SDS011;8901;52.088;5.084;2023-12-04T02:53:03;22.97;;;20.97;;
17566;SDS011;8901;52.088;5.084;2023-12-04T02:55:30;22.53;;;20.60;;
17566;SDS011;8901;52.088;5.084;2023-12-04T02:57:57;22.17;;;20.47;;
17566;SDS011;8901;52.088;5.084;2023-12-04T03:00:26;23.90;;;21.80;;
17566;SDS011;8901;52.088;5.084;2023-12-04T03:02:53;23.03;;;21.03;;
17566;SDS011;8901;52.088;5.084;2023-12-04T03:05:20;22.80;;;20.80;;
17566;SDS011;8901;52.088;5.084;2023-12-04T03:07:48;23.33;;;21.27;;
17566;SDS011;8901;52.088;5.084;2023-12-04T03:10:15;22.90;;;21.10;;
17566;SDS011;8901;52.088;5.084;2023-12-04T03:12:42;21.47;;;19.67;;
17566;SDS011;8901;52.088;5.084;2023-12-04T03:15:09;23.97;;;21.97;;
17566;SDS011;8901;52.088;5.084;2023-12-04T03:17:39;22.53;;;20.53;;
17566;SDS011;8901;52.088;5.084;2023-12-04T03:20:07;22.17;;;20.27;;
17566;SDS011;8901;52.088;5.084;2023-12-04T03:22:34;23.23;;;21.23;;
17566;SDS011;8901;52.088;5.084;2023-12-04T03:25:01;22.80;;;21.00;;
17566;SDS011;8901;52.088;5.084;2023-12-04T03:27:29;24.07;;;21.97;;
17566;SDS011;8901;52.088;5.084;2023-12-04T03:29:56;22.23;;;20.43;;
17566;SDS011;8901;52.088;5.084;2023-12-04T03:32:23;21.43;;;19.63;;
17566;SDS011;8901;52.088;5.084;2023-12-04T03:34:52;22.07;;;20.17;;
17566;SDS011;8901;52.088;5.084;2023-12-04T03:37:19;22.17;;;20.20;;
17566;SDS011;8901;52.088;5.084;2023-12-04T03:39:47;24.20;;;22.00;;
17566;SDS011;8901;52.088;5.084;2023-12-04T03:42:14;21.87;;;20.03;;
17566;SDS011;8901;52.088;5.084;2023-12-04T03:44:41;21.60;;;19.50;;
17566;SDS011;8901;52.088;5.084;2023-12-04T03:47:08;22.30;;;20.40;;
17566;SDS011;8901;52.088;5.084;2023-12-04T03:49:35;20.33;;;18.73;;
17566;SDS011;8901;52.088;5.084;2023-12-04T03:52:04;22.30;;;20.43;;
17566;SDS011;8901;52.088;5.084;2023-12-04T03:54:32;22.80;;;20.90;;
17566;SDS011;8901;52.088;5.084;2023-12-04T03:56:59;20.97;;;18.97;;
17566;SDS011;8901;52.088;5.084;2023-12-04T03:59:27;20.63;;;18.83;;
17566;SDS011;8901;52.088;5.084;2023-12-04T04:01:54;22.13;;;20.23;;
17566;SDS011;8901;52.088;5.084;2023-12-04T04:04:21;21.33;;;19.43;;
17566;SDS011;8901;52.088;5.084;2023-12-04T04:06:48;21.57;;;19.57;;
17566;SDS011;8901;52.088;5.084;2023-12-04T04:09:17;21.70;;;19.90;;
17566;SDS011;8901;52.088;5.084;2023-12-04T04:11:45;21.17;;;19.37;;
17566;SDS011;8901;52.088;5.084;2023-12-04T04:14:12;21.50;;;19.70;;
17566;SDS011;8901;52.088;5.084;2023-12-04T04:16:39;21.80;;;19.67;;
17566;SDS011;8901;52.088;5.084;2023-12-04T04:19:07;23.43;;;21.47;;
17566;SDS011;8901;52.088;5.084;2023-12-04T04:21:34;22.83;;;20.80;;
17566;SDS011;8901;52.088;5.084;2023-12-04T04:24:05;20.20;;;18.50;;
17566;SDS011;8901;52.088;5.084;2023-12-04T04:26:34;22.00;;;20.10;;
17566;SDS011;8901;52.088;5.084;2023-12-04T04:29:01;20.13;;;18.53;;
17566;SDS011;8901;52.088;5.084;2023-12-04T04:31:28;20.63;;;18.93;;
17566;SDS011;8901;52.088;5.084;2023-12-04T04:33:56;22.80;;;20.83;;
17566;SDS011;8901;52.088;5.084;2023-12-04T04:36:23;20.47;;;18.77;;
17566;SDS011;8901;52.088;5.084;2023-12-04T04:38:50;21.70;;;19.90;;
17566;SDS011;8901;52.088;5.084;2023-12-04T04:41:17;20.57;;;18.87;;
17566;SDS011;8901;52.088;5.084;2023-12-04T04:43:46;21.20;;;19.50;;
17566;SDS011;8901;52.088;5.084;2023-12-04T04:46:13;19.73;;;18.00;;
17566;SDS011;8901;52.088;5.084;2023-12-04T04:48:40;21.37;;;19.53;;
17566;SDS011;8901;52.088;5.084;2023-12-04T04:51:08;20.53;;;18.70;;
17566;SDS011;8901;52.088;5.084;2023-12-04T04:53:35;21.13;;;19.43;;
17566;SDS011;8901;52.088;5.084;2023-12-04T04:56:02;20.30;;;18.40;;
17566;SDS011;8901;52.088;5.084;2023-12-04T04:58:29;21.10;;;19.37;;
17566;SDS011;8901;52.088;5.084;2023-12-04T05:00:58;22.03;;;20.23;;
17566;SDS011;8901;52.088;5.084;2023-12-04T05:03:25;20.80;;;19.13;;
17566;SDS011;8901;52.088;5.084;2023-12-04T05:05:52;21.40;;;19.50;;
17566;SDS011;8901;52.088;5.084;2023-12-04T05:08:19;20.57;;;18.70;;
17566;SDS011;8901;52.088;5.084;2023-12-04T05:10:46;19.93;;;18.40;;
17566;SDS011;8901;52.088;5.084;2023-12-04T05:13:13;21.83;;;20.13;;
17566;SDS011;8901;52.088;5.084;2023-12-04T05:15:41;20.70;;;18.93;;
17566;SDS011;8901;52.088;5.084;2023-12-04T05:18:09;21.17;;;19.47;;
17566;SDS011;8901;52.088;5.084;2023-12-04T05:20:36;17.40;;;16.13;;
17566;SDS011;8901;52.088;5.084;2023-12-04T05:23:03;21.23;;;19.53;;
17566;SDS011;8901;52.088;5.084;2023-12-04T05:25:30;22.63;;;20.73;;
17566;SDS011;8901;52.088;5.084;2023-12-04T05:27:58;21.83;;;20.10;;
17566;SDS011;8901;52.088;5.084;2023-12-04T05:30:25;21.63;;;19.93;;
17566;SDS011;8901;52.088;5.084;2023-12-04T05:32:52;21.93;;;20.13;;
17566;SDS011;8901;52.088;5.084;2023-12-04T05:35:21;20.63;;;18.70;;
17566;SDS011;8901;52.088;5.084;2023-12-04T05:37:48;21.93;;;19.93;;
17566;SDS011;8901;52.088;5.084;2023-12-04T05:40:15;20.87;;;19.27;;
17566;SDS011;8901;52.088;5.084;2023-12-04T05:42:43;20.60;;;18.93;;
17566;SDS011;8901;52.088;5.084;2023-12-04T05:45:11;22.10;;;19.87;;
17566;SDS011;8901;52.088;5.084;2023-12-04T05:47:38;21.83;;;20.03;;
17566;SDS011;8901;52.088;5.084;2023-12-04T05:50:05;22.80;;;20.67;;
17566;SDS011;8901;52.088;5.084;2023-12-04T05:52:34;22.50;;;20.40;;
17566;SDS011;8901;52.088;5.084;2023-12-04T05:55:01;21.50;;;19.80;;
17566;SDS011;8901;52.088;5.084;2023-12-04T05:57:29;23.07;;;21.23;;
17566;SDS011;8901;52.088;5.084;2023-12-04T05:59:56;21.63;;;19.83;;
17566;SDS011;8901;52.088;5.084;2023-12-04T06:02:23;19.53;;;18.03;;
17566;SDS011;8901;52.088;5.084;2023-12-04T06:04:53;21.07;;;19.47;;
17566;SDS011;8901;52.088;5.084;2023-12-04T06:07:20;19.90;;;18.30;;
17566;SDS011;8901;52.088;5.084;2023-12-04T06:09:48;21.40;;;19.70;;
17566;SDS011;8901;52.088;5.084;2023-12-04T06:12:16;22.07;;;20.30;;
17566;SDS011;8901;52.088;5.084;2023-12-04T06:14:43;21.60;;;19.80;;
17566;SDS011;8901;52.088;5.084;2023-12-04T06:17:10;22.30;;;20.40;;
17566;SDS011;8901;52.088;5.084;2023-12-04T06:19:37;22.97;;;21.07;;
17566;SDS011;8901;52.088;5.084;2023-12-04T06:22:04;21.17;;;19.40;;
17566;SDS011;8901;52.088;5.084;2023-12-04T06:24:32;20.60;;;18.97;;
17566;SDS011;8901;52.088;5.084;2023-12-04T06:27:01;21.97;;;20.20;;
17566;SDS011;8901;52.088;5.084;2023-12-04T06:29:30;20.77;;;19.17;;
17566;SDS011;8901;52.088;5.084;2023-12-04T06:31:57;23.23;;;21.33;;
17566;SDS011;8901;52.088;5.084;2023-12-04T06:34:25;22.90;;;21.00;;
17566;SDS011;8901;52.088;5.084;2023-12-04T06:36:52;20.43;;;18.83;;
17566;SDS011;8901;52.088;5.084;2023-12-04T06:39:20;20.87;;;19.10;;
17566;SDS011;8901;52.088;5.084;2023-12-04T06:41:49;21.07;;;19.37;;
17566;SDS011;8901;52.088;5.084;2023-12-04T06:44:18;21.80;;;19.97;;
17566;SDS011;8901;52.088;5.084;2023-12-04T06:46:46;22.37;;;20.57;;
17566;SDS011;8901;52.088;5.084;2023-12-04T06:49:15;21.17;;;19.47;;
17566;SDS011;8901;52.088;5.084;2023-12-04T06:51:44;20.73;;;19.03;;
17566;SDS011;8901;52.088;5.084;2023-12-04T06:54:11;21.23;;;19.57;;
17566;SDS011;8901;52.088;5.084;2023-12-04T06:56:39;21.23;;;19.53;;
17566;SDS011;8901;52.088;5.084;2023-12-04T06:59:06;20.93;;;19.33;;
17566;SDS011;8901;52.088;5.084;2023-12-04T07:01:34;19.03;;;17.50;;
17566;SDS011;8901;52.088;5.084;2023-12-04T07:04:01;22.37;;;20.47;;
17566;SDS011;8901;52.088;5.084;2023-12-04T07:06:34;19.73;;;18.27;;
17566;SDS011;8901;52.088;5.084;2023-12-04T07:09:01;21.73;;;20.00;;
17566;SDS011;8901;52.088;5.084;2023-12-04T07:11:29;19.00;;;17.53;;
17566;SDS011;8901;52.088;5.084;2023-12-04T07:13:56;19.67;;;17.87;;
17566;SDS011;8901;52.088;5.084;2023-12-04T07:16:23;20.20;;;18.50;;
17566;SDS011;8901;52.088;5.084;2023-12-04T07:18:52;21.23;;;19.33;;
17566;SDS011;8901;52.088;5.084;2023-12-04T07:21:20;21.20;;;19.50;;
17566;SDS011;8901;52.088;5.084;2023-12-04T07:23:47;19.80;;;18.23;;
17566;SDS011;8901;52.088;5.084;2023-12-04T07:26:14;20.07;;;18.57;;
17566;SDS011;8901;52.088;5.084;2023-12-04T07:28:41;20.43;;;18.83;;
17566;SDS011;8901;52.088;5.084;2023-12-04T07:31:09;21.03;;;19.37;;
17566;SDS011;8901;52.088;5.084;2023-12-04T07:33:36;18.93;;;17.03;;
17566;SDS011;8901;52.088;5.084;2023-12-04T07:36:05;18.33;;;16.93;;
17566;SDS011;8901;52.088;5.084;2023-12-04T07:38:33;19.83;;;18.30;;
17566;SDS011;8901;52.088;5.084;2023-12-04T07:41:00;19.73;;;18.30;;
17566;SDS011;8901;52.088;5.084;2023-12-04T07:43:27;21.60;;;20.00;;
17566;SDS011;8901;52.088;5.084;2023-12-04T07:45:55;20.20;;;18.37;;
17566;SDS011;8901;52.088;5.084;2023-12-04T07:48:22;20.70;;;19.20;;
17566;SDS011;8901;52.088;5.084;2023-12-04T07:50:50;19.33;;;17.73;;
17566;SDS011;8901;52.088;5.084;2023-12-04T07:53:18;19.67;;;17.87;;
17566;SDS011;8901;52.088;5.084;2023-12-04T07:55:46;21.47;;;19.77;;
17566;SDS011;8901;52.088;5.084;2023-12-04T07:58:13;22.07;;;20.37;;
17566;SDS011;8901;52.088;5.084;2023-12-04T08:00:40;21.43;;;19.73;;
17566;SDS011;8901;52.088;5.084;2023-12-04T08:03:08;22.30;;;20.70;;
17566;SDS011;8901;52.088;5.084;2023-12-04T08:05:35;20.20;;;18.27;;
17566;SDS011;8901;52.088;5.084;2023-12-04T08:08:02;21.60;;;19.80;;
17566;SDS011;8901;52.088;5.084;2023-12-04T08:10:31;21.60;;;20.00;;
17566;SDS011;8901;52.088;5.084;2023-12-04T08:12:59;22.20;;;20.53;;
17566;SDS011;8901;52.088;5.084;2023-12-04T08:15:26;22.03;;;20.47;;
17566;SDS011;8901;52.088;5.084;2023-12-04T08:17:53;21.83;;;20.13;;
17566;SDS011;8901;52.088;5.084;2023-12-04T08:20:23;22.13;;;20.53;;
17566;SDS011;8901;52.088;5.084;2023-12-04T08:22:50;22.60;;;20.77;;
17566;SDS011;8901;52.088;5.084;2023-12-04T08:25:17;21.67;;;20.00;;
17566;SDS011;8901;52.088;5.084;2023-12-04T08:27:46;21.23;;;19.73;;
17566;SDS011;8901;52.088;5.084;2023-12-04T08:30:14;22.20;;;20.50;;
17566;SDS011;8901;52.088;5.084;2023-12-04T08:32:42;22.87;;;21.03;;
17566;SDS011;8901;52.088;5.084;2023-12-04T08:35:09;22.23;;;20.63;;
17566;SDS011;8901;52.088;5.084;2023-12-04T08:37:36;22.37;;;20.67;;
17566;SDS011;8901;52.088;5.084;2023-12-04T08:40:04;22.70;;;21.10;;
17566;SDS011;8901;52.088;5.084;2023-12-04T08:42:33;21.83;;;20.23;;
17566;SDS011;8901;52.088;5.084;2023-12-04T08:45:01;17.60;;;16.30;;
17566;SDS011;8901;52.088;5.084;2023-12-04T08:47:30;17.20;;;15.90;;
17566;SDS011;8901;52.088;5.084;2023-12-04T08:49:59;16.67;;;15.37;;
17566;SDS011;8901;52.088;5.084;2023-12-04T08:52:27;19.93;;;18.50;;
17566;SDS011;8901;52.088;5.084;2023-12-04T08:54:54;17.97;;;14.90;;
17566;SDS011;8901;52.088;5.084;2023-12-04T08:57:21;19.13;;;17.77;;
17566;SDS011;8901;52.088;5.084;2023-12-04T08:59:48;15.87;;;14.60;;
17566;SDS011;8901;52.088;5.084;2023-12-04T09:02:17;15.90;;;14.67;;
17566;SDS011;8901;52.088;5.084;2023-12-04T09:04:44;15.40;;;14.30;;
17566;SDS011;8901;52.088;5.084;2023-12-04T09:07:12;21.63;;;19.77;;
17566;SDS011;8901;52.088;5.084;2023-12-04T09:09:39;20.73;;;19.20;;
17566;SDS011;8901;52.088;5.084;2023-12-04T09:12:07;22.23;;;20.55;;
17566;SDS011;8901;52.088;5.084;2023-12-04T09:14:34;21.77;;;20.00;;
17566;SDS011;8901;52.088;5.084;2023-12-04T09:17:01;21.47;;;19.87;;
17566;SDS011;8901;52.088;5.084;2023-12-04T09:19:31;21.50;;;19.80;;
17566;SDS011;8901;52.088;5.084;2023-12-04T09:21:58;21.60;;;20.20;;
17566;SDS011;8901;52.088;5.084;2023-12-04T09:24:25;21.60;;;19.90;;
17566;SDS011;8901;52.088;5.084;2023-12-04T09:26:52;22.63;;;20.97;;
17566;SDS011;8901;52.088;5.084;2023-12-04T09:29:20;22.37;;;20.83;;
17566;SDS011;8901;52.088;5.084;2023-12-04T09:31:49;22.63;;;20.83;;
17566;SDS011;8901;52.088;5.084;2023-12-04T09:34:16;22.73;;;21.13;;
17566;SDS011;8901;52.088;5.084;2023-12-04T09:36:46;20.93;;;19.33;;
17566;SDS011;8901;52.088;5.084;2023-12-04T09:39:14;20.67;;;19.17;;
17566;SDS011;8901;52.088;5.084;2023-12-04T09:41:42;20.13;;;18.63;;
17566;SDS011;8901;52.088;5.084;2023-12-04T09:44:09;23.17;;;21.27;;
17566;SDS011;8901;52.088;5.084;2023-12-04T09:46:36;23.13;;;21.33;;
17566;SDS011;8901;52.088;5.084;2023-12-04T09:49:04;23.03;;;21.23;;
17566;SDS011;8901;52.088;5.084;2023-12-04T09:51:32;22.20;;;20.57;;
17566;SDS011;8901;52.088;5.084;2023-12-04T09:54:01;22.03;;;20.33;;
17566;SDS011;8901;52.088;5.084;2023-12-04T09:56:30;22.40;;;20.80;;
17566;SDS011;8901;52.088;5.084;2023-12-04T09:58:58;23.23;;;21.27;;
17566;SDS011;8901;52.088;5.084;2023-12-04T10:01:26;22.57;;;20.77;;
17566;SDS011;8901;52.088;5.084;2023-12-04T10:03:53;22.57;;;20.87;;
17566;SDS011;8901;52.088;5.084;2023-12-04T10:06:22;24.30;;;22.40;;
17566;SDS011;8901;52.088;5.084;2023-12-04T10:08:50;23.10;;;21.37;;
17566;SDS011;8901;52.088;5.084;2023-12-04T10:11:19;22.87;;;21.07;;
17566;SDS011;8901;52.088;5.084;2023-12-04T10:13:46;22.40;;;20.63;;
17566;SDS011;8901;52.088;5.084;2023-12-04T10:16:13;22.27;;;20.57;;
17566;SDS011;8901;52.088;5.084;2023-12-04T10:18:41;22.70;;;20.90;;
17566;SDS011;8901;52.088;5.084;2023-12-04T10:21:08;22.40;;;20.70;;
17566;SDS011;8901;52.088;5.084;2023-12-04T10:23:39;23.70;;;21.90;;
17566;SDS011;8901;52.088;5.084;2023-12-04T10:26:07;23.60;;;21.80;;
17566;SDS011;8901;52.088;5.084;2023-12-04T10:28:36;22.03;;;20.37;;
17566;SDS011;8901;52.088;5.084;2023-12-04T10:31:04;23.17;;;21.30;;
17566;SDS011;8901;52.088;5.084;2023-12-04T10:33:32;23.90;;;21.97;;
17566;SDS011;8901;52.088;5.084;2023-12-04T10:36:00;22.80;;;21.10;;
17566;SDS011;8901;52.088;5.084;2023-12-04T10:38:27;22.13;;;20.43;;
17566;SDS011;8901;52.088;5.084;2023-12-04T10:40:55;20.77;;;19.20;;
17566;SDS011;8901;52.088;5.084;2023-12-04T10:43:22;22.80;;;21.00;;
17566;SDS011;8901;52.088;5.084;2023-12-04T10:45:51;22.40;;;20.57;;
17566;SDS011;8901;52.088;5.084;2023-12-04T10:48:19;21.93;;;20.27;;
17566;SDS011;8901;52.088;5.084;2023-12-04T10:50:47;22.27;;;20.47;;
17566;SDS011;8901;52.088;5.084;2023-12-04T10:53:15;23.23;;;21.40;;
17566;SDS011;8901;52.088;5.084;2023-12-04T10:55:44;22.30;;;20.60;;
17566;SDS011;8901;52.088;5.084;2023-12-04T10:58:12;22.50;;;20.70;;
17566;SDS011;8901;52.088;5.084;2023-12-04T11:00:42;22.90;;;21.20;;
17566;SDS011;8901;52.088;5.084;2023-12-04T11:03:12;21.57;;;19.87;;
17566;SDS011;8901;52.088;5.084;2023-12-04T11:05:40;21.40;;;19.83;;
17566;SDS011;8901;52.088;5.084;2023-12-04T11:08:09;22.13;;;20.23;;
17566;SDS011;8901;52.088;5.084;2023-12-04T11:10:40;22.27;;;20.57;;
17566;SDS011;8901;52.088;5.084;2023-12-04T11:13:09;22.67;;;20.97;;
17566;SDS011;8901;52.088;5.084;2023-12-04T11:15:39;21.93;;;20.13;;
17566;SDS011;8901;52.088;5.084;2023-12-04T11:18:06;21.67;;;20.07;;
17566;SDS011;8901;52.088;5.084;2023-12-04T11:20:36;22.77;;;21.07;;
17566;SDS011;8901;52.088;5.084;2023-12-04T11:23:06;20.60;;;19.10;;
17566;SDS011;8901;52.088;5.084;2023-12-04T11:25:35;20.33;;;18.60;;
17566;SDS011;8901;52.088;5.084;2023-12-04T11:28:02;20.90;;;19.30;;
17566;SDS011;8901;52.088;5.084;2023-12-04T11:30:30;22.73;;;21.03;;
17566;SDS011;8901;52.088;5.084;2023-12-04T11:32:59;24.70;;;22.80;;
17566;SDS011;8901;52.088;5.084;2023-12-04T11:35:26;24.60;;;22.70;;
17566;SDS011;8901;52.088;5.084;2023-12-04T11:37:57;25.77;;;23.57;;
17566;SDS011;8901;52.088;5.084;2023-12-04T11:40:25;23.73;;;21.87;;
17566;SDS011;8901;52.088;5.084;2023-12-04T11:42:54;21.43;;;19.67;;
17566;SDS011;8901;52.088;5.084;2023-12-04T11:45:21;20.30;;;18.60;;
17566;SDS011;8901;52.088;5.084;2023-12-04T11:47:49;20.87;;;19.37;;
17566;SDS011;8901;52.088;5.084;2023-12-04T11:50:16;20.30;;;18.80;;
17566;SDS011;8901;52.088;5.084;2023-12-04T11:52:44;21.23;;;19.60;;
17566;SDS011;8901;52.088;5.084;2023-12-04T11:55:13;21.27;;;19.67;;
17566;SDS011;8901;52.088;5.084;2023-12-04T11:57:42;21.57;;;19.80;;
17566;SDS011;8901;52.088;5.084;2023-12-04T12:00:11;21.30;;;19.70;;
17566;SDS011;8901;52.088;5.084;2023-12-04T12:02:46;21.83;;;19.97;;
17566;SDS011;8901;52.088;5.084;2023-12-04T12:05:13;21.03;;;19.53;;
17566;SDS011;8901;52.088;5.084;2023-12-04T12:07:40;22.27;;;20.57;;
17566;SDS011;8901;52.088;5.084;2023-12-04T12:10:08;21.60;;;20.00;;
17566;SDS011;8901;52.088;5.084;2023-12-04T12:12:37;20.67;;;19.07;;
17566;SDS011;8901;52.088;5.084;2023-12-04T12:15:07;23.43;;;21.53;;
17566;SDS011;8901;52.088;5.084;2023-12-04T12:17:35;23.30;;;21.40;;
17566;SDS011;8901;52.088;5.084;2023-12-04T12:20:02;22.50;;;20.60;;
17566;SDS011;8901;52.088;5.084;2023-12-04T12:22:31;22.27;;;20.47;;
17566;SDS011;8901;52.088;5.084;2023-12-04T12:24:59;23.20;;;21.33;;
17566;SDS011;8901;52.088;5.084;2023-12-04T12:27:26;22.97;;;21.20;;
17566;SDS011;8901;52.088;5.084;2023-12-04T12:29:55;22.60;;;20.77;;
17566;SDS011;8901;52.088;5.084;2023-12-04T12:32:22;23.60;;;21.73;;
17566;SDS011;8901;52.088;5.084;2023-12-04T12:34:51;21.47;;;19.67;;
17566;SDS011;8901;52.088;5.084;2023-12-04T12:37:18;22.73;;;21.03;;
17566;SDS011;8901;52.088;5.084;2023-12-04T12:39:45;21.03;;;19.43;;
17566;SDS011;8901;52.088;5.084;2023-12-04T12:42:20;23.13;;;21.33;;
17566;SDS011;8901;52.088;5.084;2023-12-04T12:44:47;22.27;;;20.57;;
17566;SDS011;8901;52.088;5.084;2023-12-04T12:47:16;22.07;;;20.37;;
17566;SDS011;8901;52.088;5.084;2023-12-04T12:49:43;23.33;;;21.50;;
17566;SDS011;8901;52.088;5.084;2023-12-04T12:52:11;22.87;;;21.07;;
17566;SDS011;8901;52.088;5.084;2023-12-04T12:54:39;24.03;;;22.13;;
17566;SDS011;8901;52.088;5.084;2023-12-04T12:57:07;23.43;;;21.53;;
17566;SDS011;8901;52.088;5.084;2023-12-04T12:59:35;23.20;;;21.33;;
17566;SDS011;8901;52.088;5.084;2023-12-04T13:02:03;22.07;;;20.37;;
17566;SDS011;8901;52.088;5.084;2023-12-04T13:04:36;22.53;;;20.63;;
17566;SDS011;8901;52.088;5.084;2023-12-04T13:07:03;22.43;;;20.67;;
17566;SDS011;8901;52.088;5.084;2023-12-04T13:09:31;20.90;;;19.27;;
17566;SDS011;8901;52.088;5.084;2023-12-04T13:12:00;18.20;;;16.70;;
17566;SDS011;8901;52.088;5.084;2023-12-04T13:14:27;18.73;;;17.13;;
17566;SDS011;8901;52.088;5.084;2023-12-04T13:16:54;21.30;;;19.60;;
17566;SDS011;8901;52.088;5.084;2023-12-04T13:19:22;20.63;;;18.87;;
17566;SDS011;8901;52.088;5.084;2023-12-04T13:21:51;21.77;;;19.97;;
17566;SDS011;8901;52.088;5.084;2023-12-04T13:24:18;18.03;;;16.63;;
17566;SDS011;8901;52.088;5.084;2023-12-04T13:26:45;19.07;;;17.47;;
17566;SDS011;8901;52.088;5.084;2023-12-04T13:29:13;17.30;;;15.73;;
17566;SDS011;8901;52.088;5.084;2023-12-04T13:31:41;19.57;;;17.97;;
17566;SDS011;8901;52.088;5.084;2023-12-04T13:34:08;19.17;;;17.67;;
17566;SDS011;8901;52.088;5.084;2023-12-04T13:36:36;17.53;;;16.13;;
17566;SDS011;8901;52.088;5.084;2023-12-04T13:39:05;18.30;;;16.87;;
17566;SDS011;8901;52.088;5.084;2023-12-04T13:41:41;20.20;;;18.50;;
17566;SDS011;8901;52.088;5.084;2023-12-04T13:44:26;17.80;;;16.40;;
17566;SDS011;8901;52.088;5.084;2023-12-04T13:46:54;21.37;;;19.33;;
17566;SDS011;8901;52.088;5.084;2023-12-04T13:49:21;21.30;;;19.60;;
17566;SDS011;8901;52.088;5.084;2023-12-04T13:51:49;21.67;;;19.83;;
17566;SDS011;8901;52.088;5.084;2023-12-04T13:54:17;16.37;;;14.87;;
17566;SDS011;8901;52.088;5.084;2023-12-04T13:56:47;20.53;;;18.83;;
17566;SDS011;8901;52.088;5.084;2023-12-04T13:59:21;17.77;;;16.37;;
17566;SDS011;8901;52.088;5.084;2023-12-04T14:01:49;17.63;;;16.13;;
17566;SDS011;8901;52.088;5.084;2023-12-04T14:04:19;19.07;;;17.57;;
17566;SDS011;8901;52.088;5.084;2023-12-04T14:06:48;18.67;;;16.87;;
17566;SDS011;8901;52.088;5.084;2023-12-04T14:09:17;19.93;;;18.23;;
17566;SDS011;8901;52.088;5.084;2023-12-04T14:11:45;20.27;;;18.67;;
17566;SDS011;8901;52.088;5.084;2023-12-04T14:14:13;20.13;;;18.43;;
17566;SDS011;8901;52.088;5.084;2023-12-04T14:16:40;18.73;;;17.23;;
17566;SDS011;8901;52.088;5.084;2023-12-04T14:19:08;16.33;;;14.93;;
17566;SDS011;8901;52.088;5.084;2023-12-04T14:21:35;17.50;;;16.00;;
17566;SDS011;8901;52.088;5.084;2023-12-04T14:24:02;18.87;;;17.37;;
17566;SDS011;8901;52.088;5.084;2023-12-04T14:26:31;18.13;;;16.63;;
17566;SDS011;8901;52.088;5.084;2023-12-04T14:28:58;17.13;;;15.63;;
17566;SDS011;8901;52.088;5.084;2023-12-04T14:31:28;18.33;;;16.93;;
17566;SDS011;8901;52.088;5.084;2023-12-04T14:33:56;15.40;;;14.10;;
17566;SDS011;8901;52.088;5.084;2023-12-04T14:36:23;20.27;;;18.67;;